sensor_id;sensor_type;location;lat;lon;timestamp;temperature;humidity
12948;DHT22;6539;49.476;8.484;2023-01-23T00:01:13;4.20;99.90
12948;DHT22;6539;49.476;8.484;2023-01-23T00:03:42;4.30;99.90
12948;DHT22;6539;49.476;8.484;2023-01-23T00:06:13;4.30;99.90
12948;DHT22;6539;49.476;8.484;2023-01-23T00:08:44;4.40;99.90
12948;DHT22;6539;49.476;8.484;2023-01-23T00:11:16;4.40;99.90
12948;DHT22;6539;49.476;8.484;2023-01-23T00:13:46;4.20;99.90
12948;DHT22;6539;49.476;8.484;2023-01-23T00:16:21;4.40;99.90
12948;DHT22;6539;49.476;8.484;2023-01-23T00:18:49;4.40;99.90
12948;DHT22;6539;49.476;8.484;2023-01-23T00:21:22;4.20;99.90
12948;DHT22;6539;49.476;8.484;2023-01-23T00:23:51;4.30;99.90
12948;DHT22;6539;49.476;8.484;2023-01-23T00:26:25;4.30;99.90
12948;DHT22;6539;49.476;8.484;2023-01-23T00:28:54;4.60;99.90
12948;DHT22;6539;49.476;8.484;2023-01-23T00:31:25;4.40;99.90
12948;DHT22;6539;49.476;8.484;2023-01-23T00:33:58;4.20;99.90
12948;DHT22;6539;49.476;8.484;2023-01-23T00:36:35;4.30;99.90
12948;DHT22;6539;49.476;8.484;2023-01-23T00:39:07;4.50;99.90
12948;DHT22;6539;49.476;8.484;2023-01-23T00:41:37;4.40;99.90
12948;DHT22;6539;49.476;8.484;2023-01-23T00:44:02;4.30;99.90
12948;DHT22;6539;49.476;8.484;2023-01-23T00:46:31;4.30;99.90
12948;DHT22;6539;49.476;8.484;2023-01-23T00:49:01;4.20;99.90
12948;DHT22;6539;49.476;8.484;2023-01-23T00:51:27;4.10;99.90
12948;DHT22;6539;49.476;8.484;2023-01-23T00:53:56;4.20;99.90
12948;DHT22;6539;49.476;8.484;2023-01-23T00:56:24;4.30;99.90
12948;DHT22;6539;49.476;8.484;2023-01-23T00:58:54;4.40;99.90
12948;DHT22;6539;49.476;8.484;2023-01-23T01:01:20;4.20;99.90
12948;DHT22;6539;49.476;8.484;2023-01-23T01:03:52;4.40;99.90
12948;DHT22;6539;49.476;8.484;2023-01-23T01:06:18;4.30;99.90
12948;DHT22;6539;49.476;8.484;2023-01-23T01:08:46;4.20;99.90
12948;DHT22;6539;49.476;8.484;2023-01-23T01:11:12;4.20;99.90
12948;DHT22;6539;49.476;8.484;2023-01-23T01:13:41;4.20;99.90
12948;DHT22;6539;49.476;8.484;2023-01-23T01:16:08;4.30;99.90
12948;DHT22;6539;49.476;8.484;2023-01-23T01:21:07;4.50;99.90
12948;DHT22;6539;49.476;8.484;2023-01-23T01:23:38;4.20;99.90
12948;DHT22;6539;49.476;8.484;2023-01-23T01:26:07;4.20;99.90
12948;DHT22;6539;49.476;8.484;2023-01-23T01:28:35;4.30;99.90
12948;DHT22;6539;49.476;8.484;2023-01-23T01:31:06;4.30;99.90
12948;DHT22;6539;49.476;8.484;2023-01-23T01:33:37;4.10;99.90
12948;DHT22;6539;49.476;8.484;2023-01-23T01:36:12;4.20;99.90
12948;DHT22;6539;49.476;8.484;2023-01-23T01:38:46;4.00;99.90
12948;DHT22;6539;49.476;8.484;2023-01-23T01:41:13;4.10;99.90
12948;DHT22;6539;49.476;8.484;2023-01-23T01:59:30;4.30;99.90
12948;DHT22;6539;49.476;8.484;2023-01-23T02:02:15;4.10;99.90
12948;DHT22;6539;49.476;8.484;2023-01-23T02:04:59;4.10;99.90
12948;DHT22;6539;49.476;8.484;2023-01-23T02:07:37;4.10;99.90
12948;DHT22;6539;49.476;8.484;2023-01-23T02:10:11;4.30;99.90
12948;DHT22;6539;49.476;8.484;2023-01-23T02:12:38;4.30;99.90
12948;DHT22;6539;49.476;8.484;2023-01-23T02:15:06;4.20;99.90
12948;DHT22;6539;49.476;8.484;2023-01-23T02:17:33;4.10;99.90
12948;DHT22;6539;49.476;8.484;2023-01-23T02:22:54;3.90;99.90
12948;DHT22;6539;49.476;8.484;2023-01-23T02:25:36;4.20;99.90
12948;DHT22;6539;49.476;8.484;2023-01-23T02:28:14;4.40;99.90
12948;DHT22;6539;49.476;8.484;2023-01-23T02:30:41;4.20;99.90
12948;DHT22;6539;49.476;8.484;2023-01-23T02:35:48;4.10;99.90
12948;DHT22;6539;49.476;8.484;2023-01-23T02:38:18;4.10;99.90
12948;DHT22;6539;49.476;8.484;2023-01-23T02:40:49;4.00;99.90
12948;DHT22;6539;49.476;8.484;2023-01-23T02:43:18;4.30;99.90
12948;DHT22;6539;49.476;8.484;2023-01-23T02:45:49;4.40;99.90
12948;DHT22;6539;49.476;8.484;2023-01-23T02:48:15;4.10;99.90
12948;DHT22;6539;49.476;8.484;2023-01-23T02:50:41;4.20;99.90
12948;DHT22;6539;49.476;8.484;2023-01-23T02:53:09;4.00;99.90
12948;DHT22;6539;49.476;8.484;2023-01-23T02:58:05;4.40;99.90
12948;DHT22;6539;49.476;8.484;2023-01-23T03:00:49;4.40;99.90
12948;DHT22;6539;49.476;8.484;2023-01-23T03:03:17;4.20;99.90
12948;DHT22;6539;49.476;8.484;2023-01-23T03:05:43;4.20;99.90
12948;DHT22;6539;49.476;8.484;2023-01-23T03:08:11;4.40;99.90
12948;DHT22;6539;49.476;8.484;2023-01-23T03:10:39;4.30;99.90
12948;DHT22;6539;49.476;8.484;2023-01-23T03:13:04;4.50;99.90
12948;DHT22;6539;49.476;8.484;2023-01-23T03:15:34;4.40;99.90
12948;DHT22;6539;49.476;8.484;2023-01-23T03:18:05;4.50;99.90
12948;DHT22;6539;49.476;8.484;2023-01-23T03:20:41;4.30;99.90
12948;DHT22;6539;49.476;8.484;2023-01-23T03:23:08;4.40;99.90
12948;DHT22;6539;49.476;8.484;2023-01-23T03:25:36;4.30;99.90
12948;DHT22;6539;49.476;8.484;2023-01-23T03:30:50;4.50;99.90
12948;DHT22;6539;49.476;8.484;2023-01-23T03:33:16;4.30;99.90
12948;DHT22;6539;49.476;8.484;2023-01-23T03:35:41;4.20;99.90
12948;DHT22;6539;49.476;8.484;2023-01-23T03:38:07;4.70;99.90
12948;DHT22;6539;49.476;8.484;2023-01-23T03:40:35;4.40;99.90
12948;DHT22;6539;49.476;8.484;2023-01-23T03:43:22;4.70;99.90
12948;DHT22;6539;49.476;8.484;2023-01-23T03:45:50;4.20;99.90
12948;DHT22;6539;49.476;8.484;2023-01-23T03:48:15;4.30;99.90
12948;DHT22;6539;49.476;8.484;2023-01-23T03:50:43;4.10;99.90
12948;DHT22;6539;49.476;8.484;2023-01-23T03:53:14;4.30;99.90
12948;DHT22;6539;49.476;8.484;2023-01-23T03:55:40;4.50;99.90
12948;DHT22;6539;49.476;8.484;2023-01-23T03:58:05;4.30;99.90
12948;DHT22;6539;49.476;8.484;2023-01-23T04:00:33;4.60;99.90
12948;DHT22;6539;49.476;8.484;2023-01-23T04:03:01;4.60;99.90
12948;DHT22;6539;49.476;8.484;2023-01-23T04:05:27;4.40;99.90
12948;DHT22;6539;49.476;8.484;2023-01-23T04:07:52;4.30;99.90
12948;DHT22;6539;49.476;8.484;2023-01-23T04:12:46;4.40;99.90
12948;DHT22;6539;49.476;8.484;2023-01-23T04:15:14;4.40;99.90
12948;DHT22;6539;49.476;8.484;2023-01-23T04:17:40;4.50;99.90
12948;DHT22;6539;49.476;8.484;2023-01-23T04:20:09;4.60;99.90
12948;DHT22;6539;49.476;8.484;2023-01-23T04:22:36;4.20;99.90
12948;DHT22;6539;49.476;8.484;2023-01-23T04:25:02;4.50;99.90
12948;DHT22;6539;49.476;8.484;2023-01-23T04:27:38;4.50;99.90
12948;DHT22;6539;49.476;8.484;2023-01-23T04:34:56;4.60;99.90
12948;DHT22;6539;49.476;8.484;2023-01-23T04:39:51;4.40;99.90
12948;DHT22;6539;49.476;8.484;2023-01-23T04:42:17;4.30;99.90
12948;DHT22;6539;49.476;8.484;2023-01-23T04:44:43;4.30;99.90
12948;DHT22;6539;49.476;8.484;2023-01-23T04:47:08;4.00;99.90
12948;DHT22;6539;49.476;8.484;2023-01-23T04:49:34;4.50;99.90
12948;DHT22;6539;49.476;8.484;2023-01-23T04:52:02;4.40;99.90
12948;DHT22;6539;49.476;8.484;2023-01-23T04:54:31;4.20;99.90
12948;DHT22;6539;49.476;8.484;2023-01-23T04:56:56;4.50;99.90
12948;DHT22;6539;49.476;8.484;2023-01-23T04:59:25;4.20;99.90
12948;DHT22;6539;49.476;8.484;2023-01-23T05:01:51;4.10;99.90
12948;DHT22;6539;49.476;8.484;2023-01-23T05:06:48;4.30;99.90
12948;DHT22;6539;49.476;8.484;2023-01-23T05:16:40;4.20;99.90
12948;DHT22;6539;49.476;8.484;2023-01-23T05:23:58;3.90;99.90
12948;DHT22;6539;49.476;8.484;2023-01-23T05:26:29;4.50;99.90
12948;DHT22;6539;49.476;8.484;2023-01-23T05:28:57;4.20;99.90
12948;DHT22;6539;49.476;8.484;2023-01-23T05:31:25;4.20;99.90
12948;DHT22;6539;49.476;8.484;2023-01-23T05:33:50;4.30;99.90
12948;DHT22;6539;49.476;8.484;2023-01-23T05:36:16;4.10;99.90
12948;DHT22;6539;49.476;8.484;2023-01-23T05:38:42;4.00;99.90
12948;DHT22;6539;49.476;8.484;2023-01-23T05:41:08;4.20;99.90
12948;DHT22;6539;49.476;8.484;2023-01-23T05:43:38;4.20;99.90
12948;DHT22;6539;49.476;8.484;2023-01-23T05:46:06;4.40;99.90
12948;DHT22;6539;49.476;8.484;2023-01-23T05:48:32;3.90;99.90
12948;DHT22;6539;49.476;8.484;2023-01-23T05:51:03;4.00;99.90
12948;DHT22;6539;49.476;8.484;2023-01-23T05:53:29;4.10;99.90
12948;DHT22;6539;49.476;8.484;2023-01-23T05:55:55;4.50;99.90
12948;DHT22;6539;49.476;8.484;2023-01-23T05:58:23;4.10;99.90
12948;DHT22;6539;49.476;8.484;2023-01-23T06:00:51;4.20;99.90
12948;DHT22;6539;49.476;8.484;2023-01-23T06:03:16;3.80;99.90
12948;DHT22;6539;49.476;8.484;2023-01-23T06:05:42;4.20;99.90
12948;DHT22;6539;49.476;8.484;2023-01-23T06:08:10;4.00;99.90
12948;DHT22;6539;49.476;8.484;2023-01-23T06:10:38;4.00;99.90
12948;DHT22;6539;49.476;8.484;2023-01-23T06:13:04;4.10;99.90
12948;DHT22;6539;49.476;8.484;2023-01-23T06:15:32;4.50;99.90
12948;DHT22;6539;49.476;8.484;2023-01-23T06:18:00;4.20;99.90
12948;DHT22;6539;49.476;8.484;2023-01-23T06:20:25;4.10;99.90
12948;DHT22;6539;49.476;8.484;2023-01-23T06:22:53;4.40;99.90
12948;DHT22;6539;49.476;8.484;2023-01-23T06:27:50;4.30;99.90
12948;DHT22;6539;49.476;8.484;2023-01-23T06:30:16;4.30;99.90
12948;DHT22;6539;49.476;8.484;2023-01-23T06:32:42;4.40;99.90
12948;DHT22;6539;49.476;8.484;2023-01-23T06:35:10;4.20;99.90
12948;DHT22;6539;49.476;8.484;2023-01-23T06:37:36;4.30;99.90
12948;DHT22;6539;49.476;8.484;2023-01-23T06:40:02;4.10;99.90
12948;DHT22;6539;49.476;8.484;2023-01-23T06:44:57;4.20;99.90
12948;DHT22;6539;49.476;8.484;2023-01-23T06:47:23;4.50;99.90
12948;DHT22;6539;49.476;8.484;2023-01-23T06:49:49;4.30;99.90
12948;DHT22;6539;49.476;8.484;2023-01-23T06:52:14;4.10;99.90
12948;DHT22;6539;49.476;8.484;2023-01-23T06:54:42;4.00;99.90
12948;DHT22;6539;49.476;8.484;2023-01-23T06:57:08;4.00;99.90
12948;DHT22;6539;49.476;8.484;2023-01-23T07:02:03;4.00;99.90
12948;DHT22;6539;49.476;8.484;2023-01-23T07:04:29;3.90;99.90
12948;DHT22;6539;49.476;8.484;2023-01-23T07:06:57;4.10;99.90
12948;DHT22;6539;49.476;8.484;2023-01-23T07:09:25;4.10;99.90
12948;DHT22;6539;49.476;8.484;2023-01-23T07:11:51;3.90;99.90
12948;DHT22;6539;49.476;8.484;2023-01-23T07:14:17;4.00;99.90
12948;DHT22;6539;49.476;8.484;2023-01-23T07:16:43;3.70;99.90
12948;DHT22;6539;49.476;8.484;2023-01-23T07:19:08;4.10;99.90
12948;DHT22;6539;49.476;8.484;2023-01-23T07:21:37;3.80;99.90
12948;DHT22;6539;49.476;8.484;2023-01-23T07:24:03;4.20;99.90
12948;DHT22;6539;49.476;8.484;2023-01-23T07:26:29;4.30;99.90
12948;DHT22;6539;49.476;8.484;2023-01-23T07:28:54;3.90;99.90
12948;DHT22;6539;49.476;8.484;2023-01-23T07:31:20;4.00;99.90
12948;DHT22;6539;49.476;8.484;2023-01-23T07:33:46;3.80;99.90
12948;DHT22;6539;49.476;8.484;2023-01-23T07:36:12;4.10;99.90
12948;DHT22;6539;49.476;8.484;2023-01-23T07:38:42;4.20;99.90
12948;DHT22;6539;49.476;8.484;2023-01-23T07:41:09;4.10;99.90
12948;DHT22;6539;49.476;8.484;2023-01-23T07:43:34;3.90;99.90
12948;DHT22;6539;49.476;8.484;2023-01-23T07:46:05;4.00;99.90
12948;DHT22;6539;49.476;8.484;2023-01-23T07:48:31;4.10;99.90
12948;DHT22;6539;49.476;8.484;2023-01-23T07:51:01;4.00;99.90
12948;DHT22;6539;49.476;8.484;2023-01-23T07:53:27;4.30;99.90
12948;DHT22;6539;49.476;8.484;2023-01-23T07:55:53;4.30;99.90
12948;DHT22;6539;49.476;8.484;2023-01-23T07:58:18;4.10;99.90
12948;DHT22;6539;49.476;8.484;2023-01-23T08:00:44;4.10;99.90
12948;DHT22;6539;49.476;8.484;2023-01-23T08:03:10;4.50;99.90
12948;DHT22;6539;49.476;8.484;2023-01-23T08:05:38;4.70;99.90
12948;DHT22;6539;49.476;8.484;2023-01-23T08:10:30;4.80;99.90
12948;DHT22;6539;49.476;8.484;2023-01-23T08:12:56;4.60;99.90
12948;DHT22;6539;49.476;8.484;2023-01-23T08:15:22;4.60;99.90
12948;DHT22;6539;49.476;8.484;2023-01-23T08:17:47;4.60;99.90
12948;DHT22;6539;49.476;8.484;2023-01-23T08:20:15;4.80;99.90
12948;DHT22;6539;49.476;8.484;2023-01-23T08:22:43;4.70;99.90
12948;DHT22;6539;49.476;8.484;2023-01-23T08:25:10;4.70;99.90
12948;DHT22;6539;49.476;8.484;2023-01-23T08:27:38;4.60;99.90
12948;DHT22;6539;49.476;8.484;2023-01-23T08:30:05;4.80;99.90
12948;DHT22;6539;49.476;8.484;2023-01-23T08:32:34;4.70;99.90
12948;DHT22;6539;49.476;8.484;2023-01-23T08:35:00;4.90;99.90
12948;DHT22;6539;49.476;8.484;2023-01-23T08:37:29;4.90;99.90
12948;DHT22;6539;49.476;8.484;2023-01-23T08:39:58;4.70;99.90
12948;DHT22;6539;49.476;8.484;2023-01-23T08:42:27;4.90;99.90
12948;DHT22;6539;49.476;8.484;2023-01-23T08:44:52;5.10;99.90
12948;DHT22;6539;49.476;8.484;2023-01-23T08:47:18;5.00;99.90
12948;DHT22;6539;49.476;8.484;2023-01-23T08:52:12;5.00;99.90
12948;DHT22;6539;49.476;8.484;2023-01-23T08:54:38;4.80;99.90
12948;DHT22;6539;49.476;8.484;2023-01-23T08:57:06;5.00;99.90
12948;DHT22;6539;49.476;8.484;2023-01-23T09:02:02;5.00;99.90
12948;DHT22;6539;49.476;8.484;2023-01-23T09:04:30;4.80;99.90
12948;DHT22;6539;49.476;8.484;2023-01-23T09:09:28;4.80;99.90
12948;DHT22;6539;49.476;8.484;2023-01-23T09:11:54;5.00;99.90
12948;DHT22;6539;49.476;8.484;2023-01-23T09:14:22;4.90;99.90
12948;DHT22;6539;49.476;8.484;2023-01-23T09:16:50;5.20;99.90
12948;DHT22;6539;49.476;8.484;2023-01-23T09:19:16;5.20;99.90
12948;DHT22;6539;49.476;8.484;2023-01-23T09:21:42;4.90;99.90
12948;DHT22;6539;49.476;8.484;2023-01-23T09:24:07;5.00;99.90
12948;DHT22;6539;49.476;8.484;2023-01-23T09:26:33;4.90;99.90
12948;DHT22;6539;49.476;8.484;2023-01-23T09:29:04;4.90;99.90
12948;DHT22;6539;49.476;8.484;2023-01-23T09:31:32;5.00;99.90
12948;DHT22;6539;49.476;8.484;2023-01-23T09:33:58;5.00;99.90
12948;DHT22;6539;49.476;8.484;2023-01-23T09:36:26;5.20;99.90
12948;DHT22;6539;49.476;8.484;2023-01-23T09:38:54;5.00;99.90
12948;DHT22;6539;49.476;8.484;2023-01-23T09:41:24;5.20;99.90
12948;DHT22;6539;49.476;8.484;2023-01-23T09:46:53;5.10;99.90
12948;DHT22;6539;49.476;8.484;2023-01-23T09:52:06;5.30;99.90
12948;DHT22;6539;49.476;8.484;2023-01-23T09:54:47;5.20;99.90
12948;DHT22;6539;49.476;8.484;2023-01-23T09:57:18;5.10;99.90
12948;DHT22;6539;49.476;8.484;2023-01-23T09:59:57;5.10;99.90
12948;DHT22;6539;49.476;8.484;2023-01-23T10:02:28;4.90;99.90
12948;DHT22;6539;49.476;8.484;2023-01-23T10:04:58;5.20;99.90
12948;DHT22;6539;49.476;8.484;2023-01-23T10:07:56;5.30;99.90
12948;DHT22;6539;49.476;8.484;2023-01-23T10:13:53;5.20;99.90
12948;DHT22;6539;49.476;8.484;2023-01-23T10:16:56;5.50;99.90
12948;DHT22;6539;49.476;8.484;2023-01-23T10:19:59;5.20;99.90
12948;DHT22;6539;49.476;8.484;2023-01-23T10:23:04;5.20;99.90
12948;DHT22;6539;49.476;8.484;2023-01-23T10:30:40;5.50;99.90
12948;DHT22;6539;49.476;8.484;2023-01-23T10:33:17;5.50;99.90
12948;DHT22;6539;49.476;8.484;2023-01-23T10:35:54;4.90;99.90
12948;DHT22;6539;49.476;8.484;2023-01-23T10:38:44;5.00;99.90
12948;DHT22;6539;49.476;8.484;2023-01-23T10:41:21;5.20;99.90
12948;DHT22;6539;49.476;8.484;2023-01-23T10:43:51;5.20;99.90
12948;DHT22;6539;49.476;8.484;2023-01-23T10:46:22;5.50;99.90
12948;DHT22;6539;49.476;8.484;2023-01-23T10:49:01;5.20;99.90
12948;DHT22;6539;49.476;8.484;2023-01-23T10:51:44;5.50;99.90
12948;DHT22;6539;49.476;8.484;2023-01-23T10:54:22;5.40;99.90
12948;DHT22;6539;49.476;8.484;2023-01-23T10:56:54;5.30;99.90
12948;DHT22;6539;49.476;8.484;2023-01-23T11:04:50;5.50;99.90
12948;DHT22;6539;49.476;8.484;2023-01-23T11:12:34;5.70;99.90
12948;DHT22;6539;49.476;8.484;2023-01-23T11:15:24;5.50;99.90
12948;DHT22;6539;49.476;8.484;2023-01-23T11:18:00;5.30;99.90
12948;DHT22;6539;49.476;8.484;2023-01-23T11:23:15;5.40;99.90
12948;DHT22;6539;49.476;8.484;2023-01-23T11:25:47;5.40;99.90
12948;DHT22;6539;49.476;8.484;2023-01-23T11:28:27;5.50;99.90
12948;DHT22;6539;49.476;8.484;2023-01-23T11:31:16;5.70;99.90
12948;DHT22;6539;49.476;8.484;2023-01-23T11:37:06;5.40;99.90
12948;DHT22;6539;49.476;8.484;2023-01-23T11:39:58;5.30;99.90
12948;DHT22;6539;49.476;8.484;2023-01-23T11:42:28;5.70;99.90
12948;DHT22;6539;49.476;8.484;2023-01-23T11:45:00;5.40;99.90
12948;DHT22;6539;49.476;8.484;2023-01-23T11:47:33;5.30;99.90
12948;DHT22;6539;49.476;8.484;2023-01-23T11:50:38;5.50;99.90
12948;DHT22;6539;49.476;8.484;2023-01-23T11:53:18;5.60;99.90
12948;DHT22;6539;49.476;8.484;2023-01-23T12:02:19;5.70;99.90
12948;DHT22;6539;49.476;8.484;2023-01-23T12:05:06;5.60;99.90
12948;DHT22;6539;49.476;8.484;2023-01-23T12:07:54;5.80;99.90
12948;DHT22;6539;49.476;8.484;2023-01-23T12:11:06;5.70;99.90
12948;DHT22;6539;49.476;8.484;2023-01-23T12:16:27;5.70;99.90
12948;DHT22;6539;49.476;8.484;2023-01-23T12:25:15;5.60;99.90
12948;DHT22;6539;49.476;8.484;2023-01-23T12:28:21;5.60;99.90
12948;DHT22;6539;49.476;8.484;2023-01-23T12:31:27;6.00;99.90
12948;DHT22;6539;49.476;8.484;2023-01-23T12:34:43;5.50;99.90
12948;DHT22;6539;49.476;8.484;2023-01-23T12:38:16;5.70;99.90
12948;DHT22;6539;49.476;8.484;2023-01-23T12:43:52;6.00;99.90
12948;DHT22;6539;49.476;8.484;2023-01-23T12:49:28;5.90;99.90
12948;DHT22;6539;49.476;8.484;2023-01-23T12:52:02;6.00;99.90
12948;DHT22;6539;49.476;8.484;2023-01-23T12:54:41;6.10;99.90
12948;DHT22;6539;49.476;8.484;2023-01-23T12:57:16;6.10;99.90
12948;DHT22;6539;49.476;8.484;2023-01-23T13:01:06;5.60;99.90
12948;DHT22;6539;49.476;8.484;2023-01-23T13:09:37;5.80;99.90
12948;DHT22;6539;49.476;8.484;2023-01-23T13:12:31;5.80;99.90
12948;DHT22;6539;49.476;8.484;2023-01-23T13:20:33;5.80;99.90
12948;DHT22;6539;49.476;8.484;2023-01-23T13:26:21;5.90;99.90
12948;DHT22;6539;49.476;8.484;2023-01-23T13:28:58;5.70;99.90
12948;DHT22;6539;49.476;8.484;2023-01-23T13:31:45;5.60;99.90
12948;DHT22;6539;49.476;8.484;2023-01-23T13:36:49;5.80;99.90
12948;DHT22;6539;49.476;8.484;2023-01-23T13:39:24;5.90;99.90
12948;DHT22;6539;49.476;8.484;2023-01-23T13:42:32;5.60;99.90
12948;DHT22;6539;49.476;8.484;2023-01-23T13:51:15;5.70;99.90
12948;DHT22;6539;49.476;8.484;2023-01-23T13:53:44;5.60;99.90
12948;DHT22;6539;49.476;8.484;2023-01-23T13:56:30;5.60;99.90
12948;DHT22;6539;49.476;8.484;2023-01-23T13:59:28;5.70;99.90
12948;DHT22;6539;49.476;8.484;2023-01-23T14:05:14;5.80;99.90
12948;DHT22;6539;49.476;8.484;2023-01-23T14:07:49;5.50;99.90
12948;DHT22;6539;49.476;8.484;2023-01-23T14:10:30;5.70;99.90
12948;DHT22;6539;49.476;8.484;2023-01-23T14:13:07;5.70;99.90
12948;DHT22;6539;49.476;8.484;2023-01-23T14:15:37;5.50;99.90
12948;DHT22;6539;49.476;8.484;2023-01-23T14:18:30;5.80;99.90
12948;DHT22;6539;49.476;8.484;2023-01-23T14:21:04;5.70;99.90
12948;DHT22;6539;49.476;8.484;2023-01-23T14:23:42;5.80;99.90
12948;DHT22;6539;49.476;8.484;2023-01-23T14:29:24;5.70;99.90
12948;DHT22;6539;49.476;8.484;2023-01-23T14:31:54;5.80;99.90
12948;DHT22;6539;49.476;8.484;2023-01-23T14:34:24;5.60;99.90
12948;DHT22;6539;49.476;8.484;2023-01-23T14:39:31;5.70;99.90
12948;DHT22;6539;49.476;8.484;2023-01-23T14:42:02;5.80;99.90
12948;DHT22;6539;49.476;8.484;2023-01-23T14:44:41;5.90;99.90
12948;DHT22;6539;49.476;8.484;2023-01-23T14:47:25;6.00;99.90
12948;DHT22;6539;49.476;8.484;2023-01-23T14:49:56;5.60;99.90
12948;DHT22;6539;49.476;8.484;2023-01-23T14:52:26;5.70;99.90
12948;DHT22;6539;49.476;8.484;2023-01-23T14:54:57;5.80;99.90
12948;DHT22;6539;49.476;8.484;2023-01-23T14:57:26;5.70;99.90
12948;DHT22;6539;49.476;8.484;2023-01-23T14:59:57;5.50;99.90
12948;DHT22;6539;49.476;8.484;2023-01-23T15:05:18;5.60;99.90
12948;DHT22;6539;49.476;8.484;2023-01-23T15:13:21;5.80;99.90
12948;DHT22;6539;49.476;8.484;2023-01-23T15:15:57;5.80;99.90
12948;DHT22;6539;49.476;8.484;2023-01-23T15:18:30;5.40;99.90
12948;DHT22;6539;49.476;8.484;2023-01-23T15:21:06;5.60;99.90
12948;DHT22;6539;49.476;8.484;2023-01-23T15:23:38;5.60;99.90
12948;DHT22;6539;49.476;8.484;2023-01-23T15:28:53;5.60;99.90
12948;DHT22;6539;49.476;8.484;2023-01-23T15:33:54;5.50;99.90
12948;DHT22;6539;49.476;8.484;2023-01-23T15:36:36;5.70;99.90
12948;DHT22;6539;49.476;8.484;2023-01-23T15:39:02;5.50;99.90
12948;DHT22;6539;49.476;8.484;2023-01-23T15:41:48;5.60;99.90
12948;DHT22;6539;49.476;8.484;2023-01-23T15:44:16;5.60;99.90
12948;DHT22;6539;49.476;8.484;2023-01-23T15:49:10;5.50;99.90
12948;DHT22;6539;49.476;8.484;2023-01-23T15:51:36;5.60;99.90
12948;DHT22;6539;49.476;8.484;2023-01-23T15:54:05;5.20;99.90
12948;DHT22;6539;49.476;8.484;2023-01-23T15:56:40;5.50;99.90
12948;DHT22;6539;49.476;8.484;2023-01-23T15:59:14;5.50;99.90
12948;DHT22;6539;49.476;8.484;2023-01-23T16:01:45;5.40;99.90
12948;DHT22;6539;49.476;8.484;2023-01-23T16:04:18;5.40;99.90
12948;DHT22;6539;49.476;8.484;2023-01-23T16:06:49;5.50;99.90
12948;DHT22;6539;49.476;8.484;2023-01-23T16:09:31;5.60;99.90
12948;DHT22;6539;49.476;8.484;2023-01-23T16:12:00;5.10;99.90
12948;DHT22;6539;49.476;8.484;2023-01-23T16:14:29;5.50;99.90
12948;DHT22;6539;49.476;8.484;2023-01-23T16:16:57;5.40;99.90
12948;DHT22;6539;49.476;8.484;2023-01-23T16:19:23;5.50;99.90
12948;DHT22;6539;49.476;8.484;2023-01-23T16:21:51;5.40;99.90
12948;DHT22;6539;49.476;8.484;2023-01-23T16:24:20;5.20;99.90
12948;DHT22;6539;49.476;8.484;2023-01-23T16:26:49;5.40;99.90
12948;DHT22;6539;49.476;8.484;2023-01-23T16:29:29;5.30;99.90
12948;DHT22;6539;49.476;8.484;2023-01-23T16:31:57;5.40;99.90
12948;DHT22;6539;49.476;8.484;2023-01-23T16:34:25;5.30;99.90
12948;DHT22;6539;49.476;8.484;2023-01-23T16:36:56;5.30;99.90
12948;DHT22;6539;49.476;8.484;2023-01-23T16:39:26;5.30;99.90
12948;DHT22;6539;49.476;8.484;2023-01-23T16:41:54;5.20;99.90
12948;DHT22;6539;49.476;8.484;2023-01-23T16:44:20;5.30;99.90
12948;DHT22;6539;49.476;8.484;2023-01-23T16:46:50;7.00;99.90
12948;DHT22;6539;49.476;8.484;2023-01-23T16:49:17;5.30;99.90
12948;DHT22;6539;49.476;8.484;2023-01-23T16:51:57;5.30;99.90
12948;DHT22;6539;49.476;8.484;2023-01-23T16:54:25;5.20;99.90
12948;DHT22;6539;49.476;8.484;2023-01-23T16:56:52;5.20;99.90
12948;DHT22;6539;49.476;8.484;2023-01-23T16:59:34;5.20;99.90
12948;DHT22;6539;49.476;8.484;2023-01-23T17:02:21;5.10;99.90
12948;DHT22;6539;49.476;8.484;2023-01-23T17:04:51;5.20;99.90
12948;DHT22;6539;49.476;8.484;2023-01-23T17:07:18;5.40;99.90
12948;DHT22;6539;49.476;8.484;2023-01-23T17:09:47;5.10;99.90
12948;DHT22;6539;49.476;8.484;2023-01-23T17:12:21;5.40;99.90
12948;DHT22;6539;49.476;8.484;2023-01-23T17:14:52;5.10;99.90
12948;DHT22;6539;49.476;8.484;2023-01-23T17:17:30;5.20;99.90
12948;DHT22;6539;49.476;8.484;2023-01-23T17:20:03;5.20;99.90
12948;DHT22;6539;49.476;8.484;2023-01-23T17:22:41;5.30;99.90
12948;DHT22;6539;49.476;8.484;2023-01-23T17:25:19;5.00;99.90
12948;DHT22;6539;49.476;8.484;2023-01-23T17:27:47;5.30;99.90
12948;DHT22;6539;49.476;8.484;2023-01-23T17:30:19;5.10;99.90
12948;DHT22;6539;49.476;8.484;2023-01-23T17:32:51;5.20;99.90
12948;DHT22;6539;49.476;8.484;2023-01-23T17:35:32;5.00;99.90
12948;DHT22;6539;49.476;8.484;2023-01-23T17:38:07;5.20;99.90
12948;DHT22;6539;49.476;8.484;2023-01-23T17:40:40;5.30;99.90
12948;DHT22;6539;49.476;8.484;2023-01-23T17:43:10;5.20;99.90
12948;DHT22;6539;49.476;8.484;2023-01-23T17:45:40;5.40;99.90
12948;DHT22;6539;49.476;8.484;2023-01-23T17:48:16;5.30;99.90
12948;DHT22;6539;49.476;8.484;2023-01-23T17:50:54;4.80;99.90
12948;DHT22;6539;49.476;8.484;2023-01-23T17:53:22;5.20;99.90
12948;DHT22;6539;49.476;8.484;2023-01-23T17:55:50;5.20;99.90
12948;DHT22;6539;49.476;8.484;2023-01-23T17:58:18;5.20;99.90
12948;DHT22;6539;49.476;8.484;2023-01-23T18:00:47;5.10;99.90
12948;DHT22;6539;49.476;8.484;2023-01-23T18:03:20;5.00;99.90
12948;DHT22;6539;49.476;8.484;2023-01-23T18:05:47;5.10;99.90
12948;DHT22;6539;49.476;8.484;2023-01-23T18:08:18;4.90;99.90
12948;DHT22;6539;49.476;8.484;2023-01-23T18:10:52;4.80;99.90
12948;DHT22;6539;49.476;8.484;2023-01-23T18:16:25;4.70;99.90
12948;DHT22;6539;49.476;8.484;2023-01-23T18:19:00;4.90;99.90
12948;DHT22;6539;49.476;8.484;2023-01-23T18:24:02;4.80;99.90
12948;DHT22;6539;49.476;8.484;2023-01-23T18:26:42;4.90;99.90
12948;DHT22;6539;49.476;8.484;2023-01-23T18:29:22;4.70;99.90
12948;DHT22;6539;49.476;8.484;2023-01-23T18:40:37;5.10;99.90
12948;DHT22;6539;49.476;8.484;2023-01-23T18:46:16;5.20;99.90
12948;DHT22;6539;49.476;8.484;2023-01-23T18:48:46;4.90;99.90
12948;DHT22;6539;49.476;8.484;2023-01-23T19:01:54;5.20;99.90
12948;DHT22;6539;49.476;8.484;2023-01-23T19:04:31;5.00;99.90
12948;DHT22;6539;49.476;8.484;2023-01-23T19:07:13;4.90;99.90
12948;DHT22;6539;49.476;8.484;2023-01-23T19:21:22;5.00;99.90
12948;DHT22;6539;49.476;8.484;2023-01-23T19:24:02;5.30;99.90
12948;DHT22;6539;49.476;8.484;2023-01-23T19:26:39;5.10;99.90
12948;DHT22;6539;49.476;8.484;2023-01-23T19:29:08;4.90;99.90
12948;DHT22;6539;49.476;8.484;2023-01-23T19:31:36;4.90;99.90
12948;DHT22;6539;49.476;8.484;2023-01-23T19:34:06;5.30;99.90
12948;DHT22;6539;49.476;8.484;2023-01-23T19:36:34;4.90;99.90
12948;DHT22;6539;49.476;8.484;2023-01-23T19:39:01;5.00;99.90
12948;DHT22;6539;49.476;8.484;2023-01-23T19:46:32;5.20;99.90
12948;DHT22;6539;49.476;8.484;2023-01-23T19:49:00;5.00;99.90
12948;DHT22;6539;49.476;8.484;2023-01-23T19:51:29;5.10;99.90
12948;DHT22;6539;49.476;8.484;2023-01-23T19:53:59;5.20;99.90
12948;DHT22;6539;49.476;8.484;2023-01-23T19:56:27;5.00;99.90
12948;DHT22;6539;49.476;8.484;2023-01-23T20:04:06;5.20;99.90
12948;DHT22;6539;49.476;8.484;2023-01-23T20:06:36;5.10;99.90
12948;DHT22;6539;49.476;8.484;2023-01-23T20:09:05;5.10;99.90
12948;DHT22;6539;49.476;8.484;2023-01-23T20:11:33;4.90;99.90
12948;DHT22;6539;49.476;8.484;2023-01-23T20:14:02;5.10;99.90